Time;durP1;ratioP1;P1;durP2;ratioP2;P2;SDS_P1;SDS_P2;PMS_P1;PMS_P2;Temp;Humidity;BMP_temperature;BMP_pressure;BME280_temperature;BME280_humidity;BME280_pressure;Samples;Min_cycle;Max_cycle;Signal;HPM_P1;HPM_P2
2022/04/18 00:01:55;;;;;;;3.53;2.28;;;;;;;6.21;56.16;99953.13;4971838;28;20398;-67
2022/04/18 00:04:20;;;;;;;3.85;2.10;;;;;;;6.19;56.53;99954.06;4971320;28;20442;-67
2022/04/18 00:06:46;;;;;;;3.70;2.70;;;;;;;6.15;56.66;99955.06;4972937;28;20050;-67
2022/04/18 00:09:11;;;;;;;5.15;2.33;;;;;;;6.14;56.89;99951.59;4972596;28;20047;-67
2022/04/18 00:11:37;;;;;;;6.28;2.70;;;;;;;6.12;57.70;99956.00;4971967;28;20129;-68
2022/04/18 00:14:03;;;;;;;3.40;2.30;;;;;;;6.13;55.67;99956.84;4972698;28;20062;-67
2022/04/18 00:16:29;;;;;;;2.88;1.80;;;;;;;6.17;55.81;99948.88;4978399;28;20411;-67
2022/04/18 00:18:54;;;;;;;4.72;2.60;;;;;;;6.18;56.24;99953.22;4974416;28;20035;-66
2022/04/18 00:21:20;;;;;;;5.15;3.10;;;;;;;6.18;56.44;99955.84;4971741;28;20550;-66
2022/04/18 00:23:46;;;;;;;4.68;2.40;;;;;;;6.13;57.22;99959.47;4972798;28;20035;-66
2022/04/18 00:26:12;;;;;;;3.05;2.10;;;;;;;6.05;57.88;99958.84;4971852;28;20501;-67
2022/04/18 00:28:37;;;;;;;5.95;2.72;;;;;;;5.99;58.27;99952.88;4971849;28;20042;-66
2022/04/18 00:31:03;;;;;;;3.83;2.00;;;;;;;6.02;57.58;99952.78;4971284;28;20035;-66
2022/04/18 00:33:28;;;;;;;4.25;3.03;;;;;;;6.11;56.83;99942.97;4972113;28;20039;-66
2022/04/18 00:35:55;;;;;;;4.35;2.30;;;;;;;6.09;58.05;99945.63;4972112;28;20026;-66
2022/04/18 00:38:21;;;;;;;3.90;2.85;;;;;;;6.02;58.18;99944.06;4972629;28;20392;-67
2022/04/18 00:40:46;;;;;;;4.47;3.00;;;;;;;5.97;58.57;99946.81;4978470;28;20045;-67
2022/04/18 00:43:12;;;;;;;3.63;2.40;;;;;;;5.91;58.72;99944.34;4972250;28;20038;-66
2022/04/18 00:45:37;;;;;;;4.10;2.67;;;;;;;5.88;58.42;99946.19;4970436;28;20035;-66
2022/04/18 00:48:03;;;;;;;5.07;2.70;;;;;;;5.85;58.40;99949.75;4970392;28;20590;-67
2022/04/18 00:50:31;;;;;;;5.35;2.65;;;;;;;5.82;58.28;99942.84;4971076;28;20130;-66
2022/04/18 00:52:57;;;;;;;4.57;2.67;;;;;;;5.79;58.07;99940.31;4971498;28;20553;-67
2022/04/18 00:55:26;;;;;;;4.35;2.30;;;;;;;5.77;58.42;99947.34;4971595;28;20530;-67
2022/04/18 00:57:53;;;;;;;4.47;2.13;;;;;;;5.76;58.12;99945.63;4971464;28;20088;-67
2022/04/18 01:00:18;;;;;;;6.00;2.25;;;;;;;5.76;58.29;99936.94;4964470;28;20092;-67
2022/04/18 01:02:44;;;;;;;3.42;2.03;;;;;;;5.80;58.33;99941.16;4970961;28;20035;-67
2022/04/18 01:05:10;;;;;;;7.18;2.35;;;;;;;5.80;57.65;99936.78;4971712;28;20100;-66
2022/04/18 01:07:36;;;;;;;5.28;2.40;;;;;;;5.68;58.57;99939.72;4971314;28;20034;-66
2022/04/18 01:10:03;;;;;;;3.55;2.80;;;;;;;5.62;58.35;99942.53;4970869;28;20047;-66
2022/04/18 01:12:29;;;;;;;4.13;2.35;;;;;;;5.54;59.05;99939.25;4970628;28;20049;-66
2022/04/18 01:14:54;;;;;;;3.35;2.28;;;;;;;5.50;58.78;99938.47;4971234;28;20038;-67
2022/04/18 01:17:19;;;;;;;3.13;2.38;;;;;;;5.48;59.29;99937.63;4971320;28;20043;-66
2022/04/18 01:19:45;;;;;;;7.85;2.20;;;;;;;5.42;59.66;99937.81;4971342;28;20101;-67
2022/04/18 01:22:12;;;;;;;6.85;3.63;;;;;;;5.40;59.90;99933.53;4970821;28;20599;-67
2022/04/18 01:30:09;;;;;;;3.00;2.03;;;;;;;5.34;60.22;99930.16;4970845;28;20049;-66
2022/04/18 01:32:35;;;;;;;7.75;3.25;;;;;;;5.28;59.95;99930.31;4969381;28;20446;-66
2022/04/18 01:35:00;;;;;;;5.97;2.78;;;;;;;5.24;60.47;99918.25;4970937;28;20220;-67
2022/04/18 01:37:26;;;;;;;3.78;2.47;;;;;;;5.20;60.66;99923.56;4970577;28;20065;-67
2022/04/18 01:39:51;;;;;;;5.78;2.10;;;;;;;5.17;60.42;99919.28;4970789;28;20495;-67
2022/04/18 01:42:16;;;;;;;5.82;2.25;;;;;;;5.14;60.97;99919.34;4970169;28;20038;-67
2022/04/18 01:44:42;;;;;;;4.75;2.40;;;;;;;5.13;60.64;99915.03;4970859;28;20042;-66
2022/04/18 01:47:07;;;;;;;2.85;1.83;;;;;;;5.10;61.26;99920.34;4971250;28;20041;-67
2022/04/18 01:49:33;;;;;;;3.22;2.13;;;;;;;5.12;61.19;99918.53;4970446;28;20038;-68
2022/04/18 01:51:58;;;;;;;3.78;2.25;;;;;;;5.09;61.51;99914.22;4970105;28;20069;-66
2022/04/18 01:54:24;;;;;;;5.90;2.30;;;;;;;5.08;61.03;99915.13;4971045;28;20403;-65
2022/04/18 01:56:49;;;;;;;4.07;2.35;;;;;;;5.03;61.84;99910.91;4970899;28;20483;-65
2022/04/18 01:59:14;;;;;;;3.17;2.13;;;;;;;5.01;62.02;99904.88;4970578;28;20041;-67
2022/04/18 02:01:40;;;;;;;3.60;2.10;;;;;;;5.00;61.53;99900.56;4970303;28;20038;-67
2022/04/18 02:04:06;;;;;;;5.35;2.42;;;;;;;4.92;62.07;99900.72;4970688;28;20716;-67
2022/04/18 02:06:31;;;;;;;3.58;2.40;;;;;;;4.89;61.86;99893.81;4970723;28;20046;-67
2022/04/18 02:08:57;;;;;;;3.60;2.00;;;;;;;4.84;62.06;99887.84;4970518;28;20172;-67
2022/04/18 02:11:22;;;;;;;3.78;2.10;;;;;;;4.85;61.72;99884.34;4969988;28;20038;-66
2022/04/18 02:13:47;;;;;;;3.55;1.90;;;;;;;4.84;61.07;99889.59;4970271;28;20134;-66
2022/04/18 02:16:12;;;;;;;3.63;2.30;;;;;;;4.87;60.00;99884.28;4970751;28;20066;-66
2022/04/18 02:18:38;;;;;;;4.57;2.25;;;;;;;4.88;61.92;99884.28;4970962;28;20455;-66
2022/04/18 02:21:03;;;;;;;20.13;12.27;;;;;;;4.86;62.26;99887.81;4970116;28;20039;-66
2022/04/18 02:23:28;;;;;;;6.05;3.03;;;;;;;4.76;61.98;99883.72;4970455;28;20122;-66
2022/04/18 02:25:54;;;;;;;8.30;5.30;;;;;;;4.67;62.54;99890.00;4970455;28;20039;-66
2022/04/18 02:28:20;;;;;;;3.92;2.67;;;;;;;4.67;61.88;99885.63;4970419;28;20121;-66
2022/04/18 02:30:45;;;;;;;5.30;3.00;;;;;;;4.61;62.85;99887.53;4970054;28;20035;-66
2022/04/18 02:33:11;;;;;;;5.28;2.25;;;;;;;4.57;62.38;99889.34;4970600;28;20039;-67
2022/04/18 02:35:36;;;;;;;2.85;2.30;;;;;;;4.53;62.36;99887.72;4970787;28;20054;-67
2022/04/18 02:38:01;;;;;;;5.57;2.78;;;;;;;4.48;63.07;99881.75;4970303;28;20049;-66
2022/04/18 02:40:26;;;;;;;5.93;2.58;;;;;;;4.38;63.85;99882.84;5001483;28;20117;-66
2022/04/18 02:42:52;;;;;;;4.68;2.25;;;;;;;4.30;63.77;99880.41;4970056;28;20097;-67
2022/04/18 02:45:19;;;;;;;3.88;2.65;;;;;;;4.27;64.29;99876.09;4970694;28;20047;-65
2022/04/18 02:47:45;;;;;;;6.22;2.30;;;;;;;4.28;63.76;99882.16;4970481;28;20089;-67
2022/04/18 02:50:11;;;;;;;2.55;2.00;;;;;;;4.27;63.56;99875.25;4970451;28;20042;-67
2022/04/18 02:52:36;;;;;;;2.75;1.95;;;;;;;4.26;63.62;99870.94;4966753;28;20403;-67
2022/04/18 02:55:02;;;;;;;4.28;2.17;;;;;;;4.25;63.30;99877.88;4972264;28;20039;-66
2022/04/18 02:57:27;;;;;;;6.03;3.15;;;;;;;4.23;63.25;99871.88;4973143;28;20483;-66
2022/04/18 02:59:53;;;;;;;6.13;1.98;;;;;;;4.23;63.27;99876.19;4973174;28;20038;-66
2022/04/18 03:02:18;;;;;;;2.83;1.85;;;;;;;4.21;63.34;99881.47;4974537;28;20054;-67
2022/04/18 03:04:44;;;;;;;2.85;1.80;;;;;;;4.20;62.47;99868.44;4973583;28;20061;-66
2022/04/18 03:07:09;;;;;;;5.20;1.85;;;;;;;4.14;62.58;99866.00;4974490;28;20451;-66
2022/04/18 03:09:35;;;;;;;3.17;1.80;;;;;;;4.09;63.13;99864.31;4974211;28;20120;-67
2022/04/18 03:12:02;;;;;;;7.78;2.17;;;;;;;4.07;63.24;99871.31;4975439;28;20162;-67
2022/04/18 03:14:28;;;;;;;4.00;1.90;;;;;;;4.06;63.09;99864.41;4974674;28;20097;-68
2022/04/18 03:16:54;;;;;;;2.65;1.75;;;;;;;4.06;63.27;99864.41;4975909;28;20035;-67
2022/04/18 03:19:19;;;;;;;4.07;1.90;;;;;;;4.11;63.27;99866.91;4975907;28;20039;-67
2022/04/18 03:21:45;;;;;;;3.17;1.92;;;;;;;4.11;62.78;99864.31;4975419;28;20042;-66
2022/04/18 03:24:10;;;;;;;2.88;2.03;;;;;;;4.12;63.00;99867.75;4976432;28;20062;-66
2022/04/18 03:26:35;;;;;;;3.47;2.17;;;;;;;4.13;63.05;99866.84;4976348;28;20045;-66
2022/04/18 03:29:01;;;;;;;3.20;1.90;;;;;;;4.07;63.18;99863.50;4976498;28;20459;-66
2022/04/18 03:31:26;;;;;;;3.97;1.83;;;;;;;4.07;62.89;99866.09;4976597;28;20047;-65
2022/04/18 03:33:51;;;;;;;3.15;1.83;;;;;;;4.02;63.01;99862.75;4977081;28;20718;-67
2022/04/18 03:41:44;;;;;;;7.05;2.15;;;;;;;4.03;62.53;99864.44;4975833;28;20742;-67
2022/04/18 03:44:10;;;;;;;6.20;1.98;;;;;;;4.02;62.67;99856.66;4975088;28;20039;-67
2022/04/18 03:46:35;;;;;;;2.28;1.60;;;;;;;4.08;62.64;99856.53;4976188;28;20053;-67
2022/04/18 03:49:01;;;;;;;4.50;2.05;;;;;;;4.05;62.63;99860.06;4976211;28;20043;-66
2022/04/18 03:51:26;;;;;;;3.20;1.88;;;;;;;3.99;62.84;99862.81;4975104;28;20137;-67
2022/04/18 03:53:51;;;;;;;3.00;1.95;;;;;;;4.03;61.50;99854.00;4975881;28;20093;-66
2022/04/18 03:56:17;;;;;;;2.75;1.83;;;;;;;4.04;60.99;99854.88;4976237;28;20038;-66
2022/04/18 03:58:42;;;;;;;3.28;1.85;;;;;;;4.04;62.12;99854.88;4975405;28;20034;-66
2022/04/18 04:01:07;;;;;;;3.95;1.90;;;;;;;3.96;61.78;99862.00;4975181;28;20487;-67
2022/04/18 04:03:33;;;;;;;4.03;2.25;;;;;;;3.92;62.53;99850.78;4975819;28;20391;-66
2022/04/18 04:05:58;;;;;;;3.60;1.98;;;;;;;3.81;63.56;99850.13;4976169;28;20483;-67
2022/04/18 04:08:24;;;;;;;4.10;2.65;;;;;;;3.74;63.78;99848.53;4975677;28;20391;-67
2022/04/18 04:10:50;;;;;;;3.65;2.15;;;;;;;3.72;62.80;99852.97;4975703;28;20038;-67
2022/04/18 04:13:15;;;;;;;4.30;1.88;;;;;;;3.70;62.63;99841.69;4974373;28;20045;-67
2022/04/18 04:15:41;;;;;;;2.75;1.90;;;;;;;3.70;63.27;99854.72;4974509;28;20034;-67
2022/04/18 04:18:06;;;;;;;4.55;2.10;;;;;;;3.75;63.10;99852.88;4975816;28;20055;-67
2022/04/18 04:20:31;;;;;;;3.13;1.95;;;;;;;3.80;62.86;99854.50;4974947;28;20105;-67
2022/04/18 04:22:57;;;;;;;3.67;1.80;;;;;;;3.82;62.44;99851.88;4974156;28;20055;-67
2022/04/18 04:25:22;;;;;;;6.07;2.05;;;;;;;3.82;62.61;99864.91;4975107;28;20570;-67
2022/04/18 04:27:47;;;;;;;5.18;2.10;;;;;;;3.85;62.59;99860.47;4974861;28;20537;-66
2022/04/18 04:30:13;;;;;;;3.35;1.95;;;;;;;3.87;62.57;99857.84;4974237;28;20034;-67
2022/04/18 04:32:38;;;;;;;5.80;1.83;;;;;;;3.88;62.35;99860.41;4974831;28;20093;-67
2022/04/18 04:35:04;;;;;;;4.30;1.83;;;;;;;3.93;61.70;99864.69;4974125;28;20042;-67
2022/04/18 04:37:29;;;;;;;2.55;1.67;;;;;;;3.92;61.84;99860.38;4973451;28;20039;-66
2022/04/18 04:39:55;;;;;;;3.95;2.38;;;;;;;3.87;61.83;99856.09;4974139;28;20048;-66
2022/04/18 04:42:20;;;;;;;3.20;2.33;;;;;;;3.82;62.24;99865.75;4974207;28;20122;-66
2022/04/18 04:44:45;;;;;;;4.28;2.33;;;;;;;3.81;62.00;99863.16;4974762;28;20125;-66
2022/04/18 04:47:11;;;;;;;4.72;2.70;;;;;;;3.78;62.20;99864.09;4974705;28;20120;-66
2022/04/18 04:49:37;;;;;;;7.68;4.07;;;;;;;3.76;62.38;99865.88;4973066;28;20125;-66
2022/04/18 04:52:04;;;;;;;3.25;2.08;;;;;;;3.77;62.77;99862.38;4971848;28;20051;-66
2022/04/18 04:54:29;;;;;;;2.70;2.03;;;;;;;3.79;62.32;99864.94;4973547;28;20042;-65
2022/04/18 04:56:54;;;;;;;2.20;1.67;;;;;;;3.82;62.19;99862.31;4974528;28;20035;-66
2022/04/18 04:59:20;;;;;;;2.85;2.17;;;;;;;3.86;61.84;99863.94;4974641;28;20038;-67
2022/04/18 05:01:45;;;;;;;5.80;2.45;;;;;;;3.91;61.96;99867.31;4972878;28;20098;-67
2022/04/18 05:04:10;;;;;;;4.88;2.33;;;;;;;3.97;61.76;99868.94;4973886;28;20098;-66
2022/04/18 05:06:36;;;;;;;5.78;2.35;;;;;;;3.97;62.27;99869.81;4974170;28;20039;-66
2022/04/18 05:09:02;;;;;;;5.60;2.40;;;;;;;4.04;62.12;99866.19;4974226;28;20094;-67
2022/04/18 05:11:27;;;;;;;4.13;1.90;;;;;;;4.18;61.55;99871.06;4973324;28;20467;-67
2022/04/18 05:13:53;;;;;;;3.70;2.28;;;;;;;4.36;61.11;99861.16;4971915;28;20469;-66
2022/04/18 05:16:18;;;;;;;6.18;2.47;;;;;;;4.48;60.57;99866.09;4973675;28;20049;-66
2022/04/18 05:18:43;;;;;;;5.05;2.17;;;;;;;4.56;60.13;99858.94;4973850;28;20031;-66
2022/04/18 05:21:10;;;;;;;4.07;2.22;;;;;;;4.61;60.60;99856.22;4972402;28;20045;-66
2022/04/18 05:23:36;;;;;;;4.28;1.90;;;;;;;4.73;60.45;99861.16;4971161;28;20038;-66
2022/04/18 05:26:01;;;;;;;3.55;2.30;;;;;;;4.96;59.49;99855.34;4972592;28;20053;-66
2022/04/18 05:28:26;;;;;;;3.33;2.13;;;;;;;5.16;59.15;99860.06;4972188;28;20062;-67
2022/04/18 05:30:52;;;;;;;2.95;1.75;;;;;;;5.31;59.44;99861.41;4971526;28;20466;-67
2022/04/18 05:33:18;;;;;;;5.05;2.22;;;;;;;5.51;59.08;99861.75;4971909;28;20035;-66
2022/04/18 05:35:43;;;;;;;3.42;2.25;;;;;;;5.55;58.64;99860.75;4975073;28;20038;-67
2022/04/18 05:38:08;;;;;;;5.57;2.35;;;;;;;5.88;58.07;99859.84;4976602;28;20042;-67
2022/04/18 05:40:34;;;;;;;2.70;1.83;;;;;;;6.08;56.99;99856.66;4973911;28;20035;-66
2022/04/18 05:43:02;;;;;;;4.38;2.05;;;;;;;6.13;56.95;99855.66;4977362;28;20167;-66
2022/04/18 05:45:28;;;;;;;4.53;2.22;;;;;;;6.12;56.60;99853.91;4978112;28;20046;-67
2022/04/18 05:47:53;;;;;;;5.35;2.38;;;;;;;6.27;56.42;99851.75;4978754;28;20422;-67
2022/04/18 05:50:19;;;;;;;4.38;2.30;;;;;;;6.36;55.76;99851.47;4976894;28;20045;-66
2022/04/18 05:52:46;;;;;;;2.90;2.05;;;;;;;6.52;55.96;99857.06;4972667;28;20031;-66
2022/04/18 05:55:11;;;;;;;3.05;2.00;;;;;;;6.76;54.91;99853.69;4972129;28;20058;-66
2022/04/18 05:57:36;;;;;;;3.15;2.00;;;;;;;7.03;54.71;99854.53;4972374;28;20038;-66
2022/04/18 06:00:04;;;;;;;4.57;2.53;;;;;;;7.26;52.96;99852.88;4972672;28;20081;-66
2022/04/18 06:02:29;;;;;;;8.60;3.55;;;;;;;7.50;52.28;99859.03;4971684;28;20085;-66
2022/04/18 06:04:55;;;;;;;5.63;3.22;;;;;;;7.64;52.50;99866.44;4970873;28;20031;-66
2022/04/18 06:07:20;;;;;;;5.15;3.47;;;;;;;7.70;53.53;99866.19;4973177;28;20482;-67
2022/04/18 06:09:45;;;;;;;4.80;3.42;;;;;;;7.83;52.34;99864.84;4971858;28;20093;-66
2022/04/18 06:12:11;;;;;;;4.60;3.15;;;;;;;8.13;51.91;99870.72;4972132;28;20098;-67
2022/04/18 06:14:36;;;;;;;4.45;2.88;;;;;;;8.51;51.62;99876.28;4971908;28;20085;-66
2022/04/18 06:17:01;;;;;;;4.68;3.08;;;;;;;8.80;50.32;99871.66;4973042;28;20043;-66
2022/04/18 06:19:27;;;;;;;6.72;3.53;;;;;;;9.03;49.35;99876.84;4974204;28;20046;-66
2022/04/18 06:21:52;;;;;;;5.40;3.67;;;;;;;9.25;50.33;99878.56;4972827;28;20050;-67
2022/04/18 06:24:18;;;;;;;6.90;3.65;;;;;;;9.40;48.21;99891.06;4974135;28;20216;-67
2022/04/18 06:26:44;;;;;;;4.78;3.65;;;;;;;9.56;50.15;99883.38;4974327;28;20479;-66
2022/04/18 06:29:09;;;;;;;5.57;3.63;;;;;;;9.88;47.71;99881.94;4974075;28;20039;-67
2022/04/18 06:31:34;;;;;;;6.07;3.33;;;;;;;10.36;45.67;99879.81;4972067;28;20042;-68
2022/04/18 06:34:00;;;;;;;4.60;3.33;;;;;;;10.92;44.72;99884.13;4974185;28;20034;-67
2022/04/18 06:36:25;;;;;;;4.60;3.45;;;;;;;11.48;43.79;99889.28;4973695;28;20038;-66
2022/04/18 06:38:50;;;;;;;6.00;3.33;;;;;;;11.96;43.11;99885.91;4973462;28;20033;-67
2022/04/18 06:41:16;;;;;;;5.80;4.05;;;;;;;12.46;41.09;99889.38;4972568;28;20035;-67
2022/04/18 06:43:41;;;;;;;4.50;3.30;;;;;;;12.89;39.73;99886.94;4974296;28;20031;-67
2022/04/18 06:46:06;;;;;;;4.97;3.55;;;;;;;13.56;38.91;99891.91;4975552;28;20030;-67
2022/04/18 06:48:32;;;;;;;6.55;3.22;;;;;;;14.09;38.03;99883.34;4975740;28;20434;-66
2022/04/18 06:50:58;;;;;;;7.20;3.83;;;;;;;14.29;37.40;99890.03;4973691;28;20039;-66
2022/04/18 06:53:24;;;;;;;9.43;3.85;;;;;;;14.42;38.01;99891.91;4973765;28;20097;-65
2022/04/18 06:58:33;;;;;;;4.25;3.33;;;;;;;15.03;37.11;99887.97;4974260;28;20101;-67
2022/04/18 07:00:59;;;;;;;6.45;3.92;;;;;;;15.23;34.76;99886.66;4973447;28;20034;-67
2022/04/18 07:03:26;;;;;;;9.25;4.30;;;;;;;15.49;34.01;99884.06;4973842;28;20034;-67
2022/04/18 07:05:52;;;;;;;5.57;4.03;;;;;;;15.82;33.59;99881.75;4973431;28;20026;-67
2022/04/18 07:08:17;;;;;;;6.65;3.40;;;;;;;15.94;33.00;99884.53;4973688;28;20097;-68
2022/04/18 07:10:42;;;;;;;7.65;3.08;;;;;;;16.16;31.23;99879.38;4973743;28;20046;-67
2022/04/18 07:13:08;;;;;;;3.58;3.00;;;;;;;16.41;31.29;99880.28;4973419;28;20097;-67
2022/04/18 07:15:33;;;;;;;6.18;2.45;;;;;;;16.71;30.98;99883.41;4973809;28;20031;-67
2022/04/18 07:17:59;;;;;;;7.20;3.10;;;;;;;17.11;29.94;99875.16;4974043;28;20027;-67
2022/04/18 07:20:25;;;;;;;7.65;2.95;;;;;;;17.38;29.59;99874.88;4975338;28;20035;-67
2022/04/18 07:22:51;;;;;;;4.22;2.75;;;;;;;17.43;29.29;99876.34;4975592;28;20565;-67
2022/04/18 07:25:16;;;;;;;3.70;2.50;;;;;;;17.58;27.72;99878.69;4973922;28;20521;-67
2022/04/18 07:27:44;;;;;;;5.32;2.97;;;;;;;17.67;27.62;99871.81;4973430;28;20031;-67
2022/04/18 07:30:10;;;;;;;4.30;2.60;;;;;;;17.89;26.53;99875.47;4974739;28;20042;-67
2022/04/18 07:32:42;;;;;;;4.32;2.97;;;;;;;18.30;25.53;99876.69;4970753;28;20039;-68
2022/04/18 07:35:09;;;;;;;4.88;2.60;;;;;;;18.36;25.57;99874.41;4971126;28;20034;-65
2022/04/18 07:37:35;;;;;;;5.18;2.70;;;;;;;18.34;25.24;99873.66;4970603;28;20122;-67
2022/04/18 07:40:03;;;;;;;4.57;2.83;;;;;;;18.27;25.96;99869.78;4973053;28;20038;-66
2022/04/18 07:42:28;;;;;;;5.20;2.80;;;;;;;18.26;25.42;99865.41;4972558;28;20065;-66
2022/04/18 07:44:54;;;;;;;4.90;3.22;;;;;;;18.67;25.49;99871.91;4973059;28;20118;-66
2022/04/18 07:47:19;;;;;;;5.90;3.63;;;;;;;18.83;24.44;99863.53;4972946;28;20135;-66
2022/04/18 07:49:45;;;;;;;4.65;2.58;;;;;;;18.80;24.12;99861.09;4972762;28;20043;-67
2022/04/18 07:52:12;;;;;;;6.35;3.75;;;;;;;18.94;23.68;99857.28;4973013;28;20047;-67
2022/04/18 07:54:38;;;;;;;4.38;3.03;;;;;;;19.19;23.42;99856.91;4974881;28;20498;-66
2022/04/18 07:57:04;;;;;;;4.32;2.60;;;;;;;19.17;23.67;99860.69;4975133;28;20478;-66
2022/04/18 07:59:30;;;;;;;4.43;2.80;;;;;;;19.18;23.65;99860.59;4973858;28;20049;-67
2022/04/18 08:01:56;;;;;;;3.80;2.55;;;;;;;19.41;23.11;99850.59;4971923;28;20129;-68
2022/04/18 08:04:21;;;;;;;5.75;2.58;;;;;;;19.55;23.13;99852.13;4972747;28;20109;-68
2022/04/18 08:06:46;;;;;;;4.80;2.70;;;;;;;19.99;22.44;99850.13;4972367;28;20665;-68
2022/04/18 08:09:11;;;;;;;4.25;2.58;;;;;;;20.05;22.68;99859.44;4972986;28;20039;-68
2022/04/18 08:11:37;;;;;;;5.15;2.70;;;;;;;20.12;22.24;99850.72;4971690;28;20113;-67
2022/04/18 08:14:02;;;;;;;3.70;2.63;;;;;;;19.94;22.64;99844.34;4972386;28;20050;-67
2022/04/18 08:16:28;;;;;;;4.25;3.00;;;;;;;20.01;22.79;99841.94;4972122;28;20046;-67
2022/04/18 08:18:53;;;;;;;2.63;2.35;;;;;;;19.73;23.49;99839.00;4972271;28;20034;-67
2022/04/18 08:21:19;;;;;;;4.15;3.03;;;;;;;19.69;23.08;99841.13;4971276;28;20034;-66
2022/04/18 08:23:46;;;;;;;3.30;2.60;;;;;;;19.82;23.13;99840.91;4970495;28;20126;-67
2022/04/18 08:26:12;;;;;;;4.25;2.88;;;;;;;20.03;23.01;99842.66;4972521;28;20100;-66
2022/04/18 08:28:38;;;;;;;3.92;2.45;;;;;;;19.92;23.21;99844.44;4975451;28;20483;-66
2022/04/18 08:31:04;;;;;;;3.67;2.65;;;;;;;19.91;23.40;99845.44;4973080;28;20043;-68
2022/04/18 08:33:30;;;;;;;4.95;3.17;;;;;;;20.27;23.06;99839.66;4973168;28;20061;-67
2022/04/18 08:35:58;;;;;;;5.15;2.75;;;;;;;20.56;22.61;99832.56;4971998;28;20130;-67
2022/04/18 08:38:25;;;;;;;3.55;2.58;;;;;;;20.65;22.58;99833.59;4972035;28;20388;-66
2022/04/18 08:40:51;;;;;;;4.90;2.88;;;;;;;20.99;21.87;99827.78;4971329;28;20052;-66
2022/04/18 08:43:17;;;;;;;6.07;3.17;;;;;;;21.22;21.86;99834.56;4971447;28;20042;-66
2022/04/18 08:45:43;;;;;;;4.07;2.55;;;;;;;21.37;21.56;99832.28;4972100;28;20050;-67
2022/04/18 08:53:37;;;;;;;5.10;2.58;;;;;;;21.37;21.40;99828.75;4971700;28;20042;-66
2022/04/18 08:56:03;;;;;;;4.65;3.05;;;;;;;21.94;21.02;99821.56;4971672;28;20022;-67
2022/04/18 08:58:29;;;;;;;3.97;2.53;;;;;;;21.98;21.03;99828.34;4976364;28;20101;-67
2022/04/18 09:00:59;;;;;;;7.10;3.00;;;;;;;22.00;20.94;99825.47;4986705;28;20105;-67
2022/04/18 09:03:24;;;;;;;6.10;2.97;;;;;;;21.40;21.91;99831.19;4990839;28;20085;-67
2022/04/18 09:06:02;;;;;;;4.35;3.00;;;;;;;21.02;22.84;99820.34;4974956;28;20487;-68
2022/04/18 09:08:29;;;;;;;8.20;3.30;;;;;;;21.04;23.10;99819.34;4971356;28;20038;-67
2022/04/18 09:10:55;;;;;;;4.38;3.25;;;;;;;21.33;22.34;99824.66;4972759;28;20130;-67
2022/04/18 09:13:24;;;;;;;6.00;3.58;;;;;;;21.46;21.92;99814.50;4971614;28;20114;-67
2022/04/18 09:15:49;;;;;;;5.90;2.75;;;;;;;21.43;22.42;99817.47;4969896;28;20042;-67
2022/04/18 09:18:19;;;;;;;4.65;3.03;;;;;;;21.72;22.19;99817.41;4971982;28;20410;-67
2022/04/18 09:20:54;;;;;;;6.07;3.72;;;;;;;21.50;22.24;99818.59;4972282;28;20486;-67
2022/04/18 09:23:24;;;;;;;;;;;;;;;21.74;22.13;99811.91;4971887;28;20117;-68
2022/04/18 09:26:04;;;;;;;6.60;3.53;;;;;;;21.78;22.09;99814.16;4971415;28;19917;-67
2022/04/18 09:28:30;;;;;;;9.77;3.65;;;;;;;21.95;22.11;99811.66;4967135;28;20042;-66
2022/04/18 09:31:01;;;;;;;6.78;3.35;;;;;;;22.79;21.76;99803.41;4970509;28;20039;-67
2022/04/18 09:33:29;;;;;;;5.05;3.83;;;;;;;23.18;21.62;99802.25;4952678;28;20039;-68
2022/04/18 09:36:24;;;;;;;7.30;3.50;;;;;;;23.99;20.90;99804.63;4953332;28;20031;-68
2022/04/18 09:38:56;;;;;;;5.93;3.40;;;;;;;24.77;20.26;99793.56;4946761;28;20047;-66
2022/04/18 09:41:23;;;;;;;6.05;4.03;;;;;;;24.85;19.85;99798.13;4950839;28;20113;-67
2022/04/18 09:43:50;;;;;;;19.42;4.20;;;;;;;24.74;19.92;99801.16;4951564;28;20042;-68
2022/04/18 09:46:16;;;;;;;7.55;3.63;;;;;;;25.10;19.99;99790.03;4954163;28;20031;-67
2022/04/18 09:48:43;;;;;;;11.90;4.68;;;;;;;25.01;19.77;99778.44;4953406;28;20059;-67
2022/04/18 09:51:14;;;;;;;4.97;4.20;;;;;;;25.30;19.41;99790.56;4953517;28;20031;-67
2022/04/18 09:53:41;;;;;;;5.15;3.50;;;;;;;24.80;19.92;99784.31;4953930;28;20031;-68
2022/04/18 09:56:08;;;;;;;10.10;3.95;;;;;;;24.67;20.06;99786.66;4953823;28;20376;-67
2022/04/18 09:58:34;;;;;;;7.63;3.65;;;;;;;24.54;20.38;99781.72;4954008;28;20218;-67
2022/04/18 10:01:05;;;;;;;4.75;3.50;;;;;;;24.61;19.83;99780.06;4953380;28;20031;-67
2022/04/18 10:03:31;;;;;;;6.93;4.38;;;;;;;24.97;19.67;99774.38;4953443;28;20407;-67
2022/04/18 10:05:58;;;;;;;11.90;3.70;;;;;;;25.14;19.56;99781.44;4951892;28;20035;-66
2022/04/18 10:08:24;;;;;;;8.88;3.70;;;;;;;25.32;19.50;99765.09;4953417;28;20047;-68
2022/04/18 10:10:50;;;;;;;5.30;3.42;;;;;;;25.59;19.32;99761.16;4953603;28;20047;-66
2022/04/18 10:13:16;;;;;;;5.25;3.88;;;;;;;25.69;19.38;99764.47;4951600;28;20073;-67
2022/04/18 10:15:42;;;;;;;13.55;4.40;;;;;;;25.74;19.59;99757.72;4954168;28;20042;-67
2022/04/18 10:18:10;;;;;;;8.65;4.00;;;;;;;25.92;19.03;99753.81;4953875;28;20036;-67
2022/04/18 10:20:44;;;;;;;7.63;3.72;;;;;;;25.94;19.02;99755.47;4955374;28;20035;-67
2022/04/18 10:23:27;;;;;;;4.68;3.00;;;;;;;26.16;19.00;99749.28;4956751;28;20094;-68
2022/04/18 10:26:01;;;;;;;6.13;3.97;;;;;;;25.71;19.33;99757.06;4956822;28;20677;-67
2022/04/18 10:28:31;;;;;;;5.93;3.97;;;;;;;26.14;19.57;99745.94;4965267;28;20039;-68
2022/04/18 10:31:00;;;;;;;10.38;4.78;;;;;;;26.34;19.02;99738.22;4975818;28;20066;-66
2022/04/18 10:33:26;;;;;;;9.18;3.72;;;;;;;25.85;19.59;99733.91;4976475;28;20114;-68
2022/04/18 10:36:00;;;;;;;5.38;3.38;;;;;;;25.58;19.93;99724.38;4976605;28;20031;-67
2022/04/18 10:38:26;;;;;;;4.65;3.10;;;;;;;25.10;19.54;99736.09;4976224;28;20073;-68
2022/04/18 10:41:14;;;;;;;4.80;3.08;;;;;;;25.21;19.73;99735.78;4976071;28;20038;-68
2022/04/18 10:44:00;;;;;;;6.47;3.25;;;;;;;25.52;19.32;99724.22;4976535;28;20027;-68
2022/04/18 10:46:25;;;;;;;8.73;2.75;;;;;;;25.35;19.55;99718.03;4976468;28;20042;-68
2022/04/18 10:48:58;;;;;;;7.32;3.47;;;;;;;25.18;19.66;99717.22;4976249;28;20038;-68
2022/04/18 10:51:37;;;;;;;7.10;3.15;;;;;;;24.08;20.25;99725.53;4975192;28;20051;-68
2022/04/18 10:54:12;;;;;;;7.40;2.95;;;;;;;23.39;21.21;99715.81;4976213;28;20410;-68
2022/04/18 10:56:48;;;;;;;7.30;3.30;;;;;;;23.39;21.34;99716.66;4976833;28;20042;-67
2022/04/18 10:59:14;;;;;;;4.05;3.28;;;;;;;22.46;21.94;99711.72;4972874;28;20043;-67
2022/04/18 11:01:40;;;;;;;3.42;2.78;;;;;;;22.14;22.25;99719.44;4975252;28;20035;-67
2022/04/18 11:04:10;;;;;;;4.68;2.95;;;;;;;21.88;22.16;99706.75;4975723;28;20045;-67
2022/04/18 11:06:39;;;;;;;3.42;2.63;;;;;;;21.44;23.04;99701.16;4971801;28;20085;-67
2022/04/18 11:09:11;;;;;;;6.10;3.60;;;;;;;21.25;23.17;99704.72;4975479;28;20058;-67
2022/04/18 11:12:01;;;;;;;5.18;3.55;;;;;;;20.75;22.60;99711.19;4975008;28;20035;-67
2022/04/18 11:14:30;;;;;;;4.43;3.10;;;;;;;20.62;23.76;99707.94;4975455;28;20043;-67
2022/04/18 11:16:56;;;;;;;4.68;3.28;;;;;;;20.69;23.13;99698.34;4975559;28;20399;-67
2022/04/18 11:19:25;;;;;;;5.43;3.33;;;;;;;20.32;23.47;99696.34;4975396;28;20052;-67
2022/04/18 11:22:01;;;;;;;5.55;2.63;;;;;;;20.38;23.70;99703.00;4974583;28;20500;-68
2022/04/18 11:24:39;;;;;;;4.47;2.42;;;;;;;20.60;22.70;99691.19;4975045;28;20511;-68
2022/04/18 11:27:06;;;;;;;3.88;2.85;;;;;;;20.37;23.62;99683.38;4975335;28;20715;-68
2022/04/18 11:29:32;;;;;;;3.67;2.80;;;;;;;20.11;23.70;99684.94;4971961;28;20178;-67
2022/04/18 11:31:58;;;;;;;5.65;3.08;;;;;;;20.06;23.60;99685.34;4971365;28;20526;-67
2022/04/18 11:34:30;;;;;;;4.15;2.72;;;;;;;20.23;23.71;99686.50;4965967;28;20035;-68
2022/04/18 11:36:57;;;;;;;5.95;2.90;;;;;;;19.93;24.49;99692.78;4970157;28;20041;-67
2022/04/18 11:39:23;;;;;;;6.85;3.42;;;;;;;20.01;24.19;99676.91;4966647;28;20102;-67
2022/04/18 11:41:48;;;;;;;3.85;2.78;;;;;;;20.09;24.06;99677.03;4974973;28;20454;-67
2022/04/18 11:44:20;;;;;;;3.92;2.60;;;;;;;20.03;23.81;99669.53;4975134;28;20038;-68
2022/04/18 11:46:46;;;;;;;5.25;2.67;;;;;;;20.03;24.58;99668.72;4974008;28;20109;-67
2022/04/18 11:49:12;;;;;;;4.97;2.83;;;;;;;19.81;24.55;99667.13;4976362;28;20115;-67
2022/04/18 11:51:41;;;;;;;7.60;3.30;;;;;;;19.77;25.05;99663.06;4975549;28;20054;-67
2022/04/18 11:54:07;;;;;;;5.43;2.97;;;;;;;20.15;24.89;99660.41;4975396;28;20038;-67
2022/04/18 11:56:32;;;;;;;3.90;2.63;;;;;;;20.40;24.42;99660.81;4973527;28;20244;-67